sensor_id;sensor_type;location;lat;lon;timestamp;P1;durP1;ratioP1;P2;durP2;ratioP2
38879;SDS011;25887;30.194;-97.880;2023-06-22T00:01:19;14.30;;;4.97;;
38879;SDS011;25887;30.194;-97.880;2023-06-22T00:04:13;10.07;;;4.35;;
38879;SDS011;25887;30.194;-97.880;2023-06-22T00:06:39;9.20;;;4.50;;
38879;SDS011;25887;30.194;-97.880;2023-06-22T00:09:05;9.68;;;3.70;;
38879;SDS011;25887;30.194;-97.880;2023-06-22T00:11:46;5.38;;;3.15;;
38879;SDS011;25887;30.194;-97.880;2023-06-22T00:14:14;7.28;;;2.30;;
38879;SDS011;25887;30.194;-97.880;2023-06-22T00:16:40;8.38;;;1.90;;
38879;SDS011;25887;30.194;-97.880;2023-06-22T00:19:08;4.00;;;1.70;;
38879;SDS011;25887;30.194;-97.880;2023-06-22T00:21:37;4.35;;;1.70;;
38879;SDS011;25887;30.194;-97.880;2023-06-22T00:24:03;5.75;;;1.83;;
38879;SDS011;25887;30.194;-97.880;2023-06-22T00:26:30;6.07;;;2.25;;
38879;SDS011;25887;30.194;-97.880;2023-06-22T00:28:56;6.72;;;1.58;;
38879;SDS011;25887;30.194;-97.880;2023-06-22T00:31:22;3.85;;;2.00;;
38879;SDS011;25887;30.194;-97.880;2023-06-22T00:33:48;8.30;;;2.55;;
38879;SDS011;25887;30.194;-97.880;2023-06-22T00:36:16;6.30;;;2.28;;
38879;SDS011;25887;30.194;-97.880;2023-06-22T00:38:43;6.50;;;2.20;;
38879;SDS011;25887;30.194;-97.880;2023-06-22T00:41:09;6.22;;;1.73;;
38879;SDS011;25887;30.194;-97.880;2023-06-22T00:43:35;3.53;;;2.08;;
38879;SDS011;25887;30.194;-97.880;2023-06-22T00:46:01;4.75;;;2.03;;
38879;SDS011;25887;30.194;-97.880;2023-06-22T00:48:28;6.32;;;2.10;;
38879;SDS011;25887;30.194;-97.880;2023-06-22T00:50:54;3.28;;;2.03;;
38879;SDS011;25887;30.194;-97.880;2023-06-22T00:53:22;3.67;;;1.98;;
38879;SDS011;25887;30.194;-97.880;2023-06-22T00:55:50;3.35;;;2.00;;
38879;SDS011;25887;30.194;-97.880;2023-06-22T00:58:17;2.85;;;2.00;;
38879;SDS011;25887;30.194;-97.880;2023-06-22T01:00:47;3.28;;;2.20;;
38879;SDS011;25887;30.194;-97.880;2023-06-22T01:03:13;3.83;;;2.00;;
38879;SDS011;25887;30.194;-97.880;2023-06-22T01:05:42;4.30;;;2.47;;
38879;SDS011;25887;30.194;-97.880;2023-06-22T01:08:18;4.15;;;2.15;;
38879;SDS011;25887;30.194;-97.880;2023-06-22T01:11:10;2.83;;;2.17;;
38879;SDS011;25887;30.194;-97.880;2023-06-22T01:16:20;5.45;;;2.13;;
38879;SDS011;25887;30.194;-97.880;2023-06-22T01:18:52;1.92;;;1.42;;
38879;SDS011;25887;30.194;-97.880;2023-06-22T01:21:22;4.47;;;2.20;;
38879;SDS011;25887;30.194;-97.880;2023-06-22T01:23:56;3.80;;;2.40;;
38879;SDS011;25887;30.194;-97.880;2023-06-22T01:29:35;3.45;;;2.38;;
38879;SDS011;25887;30.194;-97.880;2023-06-22T01:32:04;6.30;;;2.72;;
38879;SDS011;25887;30.194;-97.880;2023-06-22T01:34:32;5.43;;;2.35;;
38879;SDS011;25887;30.194;-97.880;2023-06-22T01:37:00;5.47;;;2.40;;
38879;SDS011;25887;30.194;-97.880;2023-06-22T01:39:29;5.85;;;2.75;;
38879;SDS011;25887;30.194;-97.880;2023-06-22T01:41:56;4.38;;;2.45;;
38879;SDS011;25887;30.194;-97.880;2023-06-22T01:44:22;3.65;;;2.33;;
38879;SDS011;25887;30.194;-97.880;2023-06-22T01:46:51;6.05;;;2.35;;
38879;SDS011;25887;30.194;-97.880;2023-06-22T01:49:18;7.55;;;2.55;;
38879;SDS011;25887;30.194;-97.880;2023-06-22T01:51:44;4.35;;;2.15;;
38879;SDS011;25887;30.194;-97.880;2023-06-22T01:54:11;4.18;;;2.00;;
38879;SDS011;25887;30.194;-97.880;2023-06-22T01:56:37;4.28;;;2.22;;
38879;SDS011;25887;30.194;-97.880;2023-06-22T01:59:18;4.45;;;2.17;;
38879;SDS011;25887;30.194;-97.880;2023-06-22T02:01:56;2.92;;;1.60;;
38879;SDS011;25887;30.194;-97.880;2023-06-22T02:04:27;3.90;;;2.10;;
38879;SDS011;25887;30.194;-97.880;2023-06-22T02:07:01;4.45;;;1.95;;
38879;SDS011;25887;30.194;-97.880;2023-06-22T02:09:35;2.63;;;1.65;;
38879;SDS011;25887;30.194;-97.880;2023-06-22T02:12:03;3.97;;;2.30;;
38879;SDS011;25887;30.194;-97.880;2023-06-22T02:14:32;6.82;;;2.22;;
38879;SDS011;25887;30.194;-97.880;2023-06-22T02:17:00;4.90;;;2.42;;
38879;SDS011;25887;30.194;-97.880;2023-06-22T02:19:26;3.60;;;1.98;;
38879;SDS011;25887;30.194;-97.880;2023-06-22T02:21:53;4.07;;;2.50;;
38879;SDS011;25887;30.194;-97.880;2023-06-22T02:24:19;5.07;;;2.40;;
38879;SDS011;25887;30.194;-97.880;2023-06-22T02:26:48;4.75;;;2.38;;
38879;SDS011;25887;30.194;-97.880;2023-06-22T02:29:15;7.80;;;2.75;;
38879;SDS011;25887;30.194;-97.880;2023-06-22T02:31:41;5.28;;;2.53;;
38879;SDS011;25887;30.194;-97.880;2023-06-22T02:34:07;3.45;;;2.55;;
38879;SDS011;25887;30.194;-97.880;2023-06-22T02:36:33;4.28;;;2.60;;
38879;SDS011;25887;30.194;-97.880;2023-06-22T02:39:00;7.05;;;3.55;;
38879;SDS011;25887;30.194;-97.880;2023-06-22T02:41:27;7.72;;;2.83;;
38879;SDS011;25887;30.194;-97.880;2023-06-22T02:43:53;8.27;;;3.30;;
38879;SDS011;25887;30.194;-97.880;2023-06-22T02:46:19;4.07;;;2.38;;
38879;SDS011;25887;30.194;-97.880;2023-06-22T02:48:46;8.52;;;3.08;;
38879;SDS011;25887;30.194;-97.880;2023-06-22T02:51:12;6.88;;;2.95;;
38879;SDS011;25887;30.194;-97.880;2023-06-22T02:53:40;6.63;;;3.00;;
38879;SDS011;25887;30.194;-97.880;2023-06-22T02:56:09;4.53;;;2.50;;
38879;SDS011;25887;30.194;-97.880;2023-06-22T02:58:36;3.58;;;2.63;;
38879;SDS011;25887;30.194;-97.880;2023-06-22T03:01:05;4.93;;;2.50;;
38879;SDS011;25887;30.194;-97.880;2023-06-22T03:03:31;5.57;;;2.83;;
38879;SDS011;25887;30.194;-97.880;2023-06-22T03:05:58;3.88;;;2.65;;
38879;SDS011;25887;30.194;-97.880;2023-06-22T03:08:35;4.70;;;2.60;;
38879;SDS011;25887;30.194;-97.880;2023-06-22T03:11:01;6.38;;;2.92;;
38879;SDS011;25887;30.194;-97.880;2023-06-22T03:13:28;4.22;;;2.90;;
38879;SDS011;25887;30.194;-97.880;2023-06-22T03:15:54;4.82;;;2.72;;
38879;SDS011;25887;30.194;-97.880;2023-06-22T03:18:21;4.70;;;2.83;;
38879;SDS011;25887;30.194;-97.880;2023-06-22T03:20:47;5.25;;;3.28;;
38879;SDS011;25887;30.194;-97.880;2023-06-22T03:23:14;4.50;;;2.88;;
38879;SDS011;25887;30.194;-97.880;2023-06-22T03:25:41;6.13;;;3.03;;
38879;SDS011;25887;30.194;-97.880;2023-06-22T03:28:10;6.30;;;2.88;;
38879;SDS011;25887;30.194;-97.880;2023-06-22T03:30:36;4.20;;;2.65;;
38879;SDS011;25887;30.194;-97.880;2023-06-22T03:33:02;4.38;;;2.63;;
38879;SDS011;25887;30.194;-97.880;2023-06-22T03:35:28;4.07;;;2.50;;
38879;SDS011;25887;30.194;-97.880;2023-06-22T03:37:54;4.60;;;2.70;;
38879;SDS011;25887;30.194;-97.880;2023-06-22T03:40:21;4.72;;;2.92;;
38879;SDS011;25887;30.194;-97.880;2023-06-22T03:42:48;5.35;;;2.40;;
38879;SDS011;25887;30.194;-97.880;2023-06-22T03:45:14;4.95;;;2.63;;
38879;SDS011;25887;30.194;-97.880;2023-06-22T03:48:01;4.43;;;2.88;;
38879;SDS011;25887;30.194;-97.880;2023-06-22T03:50:28;4.40;;;2.72;;
38879;SDS011;25887;30.194;-97.880;2023-06-22T03:52:55;2.67;;;2.33;;
38879;SDS011;25887;30.194;-97.880;2023-06-22T03:55:21;5.40;;;2.45;;
38879;SDS011;25887;30.194;-97.880;2023-06-22T03:57:48;5.60;;;2.70;;
38879;SDS011;25887;30.194;-97.880;2023-06-22T04:00:14;4.40;;;2.45;;
38879;SDS011;25887;30.194;-97.880;2023-06-22T04:02:41;5.55;;;2.75;;
38879;SDS011;25887;30.194;-97.880;2023-06-22T04:05:08;5.70;;;2.72;;
38879;SDS011;25887;30.194;-97.880;2023-06-22T04:07:35;4.40;;;2.60;;
38879;SDS011;25887;30.194;-97.880;2023-06-22T04:10:05;5.55;;;2.97;;
38879;SDS011;25887;30.194;-97.880;2023-06-22T04:12:31;3.80;;;2.30;;
38879;SDS011;25887;30.194;-97.880;2023-06-22T04:15:00;6.50;;;2.88;;
38879;SDS011;25887;30.194;-97.880;2023-06-22T04:17:26;6.22;;;3.35;;
38879;SDS011;25887;30.194;-97.880;2023-06-22T04:19:52;7.20;;;2.97;;
38879;SDS011;25887;30.194;-97.880;2023-06-22T04:22:18;6.88;;;3.45;;
38879;SDS011;25887;30.194;-97.880;2023-06-22T04:24:45;5.22;;;2.78;;
38879;SDS011;25887;30.194;-97.880;2023-06-22T04:27:11;7.85;;;3.30;;
38879;SDS011;25887;30.194;-97.880;2023-06-22T04:29:37;8.23;;;2.95;;
38879;SDS011;25887;30.194;-97.880;2023-06-22T04:32:09;4.40;;;2.45;;
38879;SDS011;25887;30.194;-97.880;2023-06-22T04:34:38;4.95;;;2.90;;
38879;SDS011;25887;30.194;-97.880;2023-06-22T04:37:04;5.47;;;2.60;;
38879;SDS011;25887;30.194;-97.880;2023-06-22T04:39:30;6.10;;;2.50;;
38879;SDS011;25887;30.194;-97.880;2023-06-22T04:41:56;4.15;;;2.55;;
38879;SDS011;25887;30.194;-97.880;2023-06-22T04:44:25;3.50;;;2.70;;
38879;SDS011;25887;30.194;-97.880;2023-06-22T04:46:56;4.50;;;2.75;;
38879;SDS011;25887;30.194;-97.880;2023-06-22T04:49:34;7.82;;;3.10;;
38879;SDS011;25887;30.194;-97.880;2023-06-22T04:52:06;3.47;;;2.65;;
38879;SDS011;25887;30.194;-97.880;2023-06-22T04:54:34;3.63;;;2.53;;
38879;SDS011;25887;30.194;-97.880;2023-06-22T04:57:05;5.95;;;2.55;;
38879;SDS011;25887;30.194;-97.880;2023-06-22T04:59:35;4.63;;;2.65;;
38879;SDS011;25887;30.194;-97.880;2023-06-22T05:02:04;3.40;;;2.50;;
38879;SDS011;25887;30.194;-97.880;2023-06-22T05:04:31;4.15;;;2.38;;
38879;SDS011;25887;30.194;-97.880;2023-06-22T05:06:57;4.20;;;2.70;;
38879;SDS011;25887;30.194;-97.880;2023-06-22T05:09:25;7.00;;;2.60;;
38879;SDS011;25887;30.194;-97.880;2023-06-22T05:11:51;3.97;;;2.58;;
38879;SDS011;25887;30.194;-97.880;2023-06-22T05:14:17;4.35;;;2.67;;
38879;SDS011;25887;30.194;-97.880;2023-06-22T05:16:49;4.50;;;2.78;;
38879;SDS011;25887;30.194;-97.880;2023-06-22T05:19:17;4.88;;;2.40;;
38879;SDS011;25887;30.194;-97.880;2023-06-22T05:21:43;4.28;;;2.88;;
38879;SDS011;25887;30.194;-97.880;2023-06-22T05:24:09;6.07;;;2.90;;
38879;SDS011;25887;30.194;-97.880;2023-06-22T05:26:35;3.40;;;2.47;;
38879;SDS011;25887;30.194;-97.880;2023-06-22T05:29:02;4.60;;;2.80;;
38879;SDS011;25887;30.194;-97.880;2023-06-22T05:31:29;5.32;;;2.83;;
38879;SDS011;25887;30.194;-97.880;2023-06-22T05:33:55;4.10;;;2.80;;
38879;SDS011;25887;30.194;-97.880;2023-06-22T05:36:22;6.05;;;3.05;;
38879;SDS011;25887;30.194;-97.880;2023-06-22T05:38:52;6.65;;;2.85;;
38879;SDS011;25887;30.194;-97.880;2023-06-22T05:41:18;5.10;;;2.85;;
38879;SDS011;25887;30.194;-97.880;2023-06-22T05:43:45;3.53;;;2.38;;
38879;SDS011;25887;30.194;-97.880;2023-06-22T05:46:11;4.20;;;2.70;;
38879;SDS011;25887;30.194;-97.880;2023-06-22T05:48:37;5.43;;;2.60;;
38879;SDS011;25887;30.194;-97.880;2023-06-22T05:51:04;3.72;;;2.78;;
38879;SDS011;25887;30.194;-97.880;2023-06-22T05:53:42;4.60;;;2.60;;
38879;SDS011;25887;30.194;-97.880;2023-06-22T05:56:09;9.40;;;3.13;;
38879;SDS011;25887;30.194;-97.880;2023-06-22T05:58:35;4.45;;;2.75;;
38879;SDS011;25887;30.194;-97.880;2023-06-22T06:01:02;3.65;;;2.45;;
38879;SDS011;25887;30.194;-97.880;2023-06-22T06:03:28;5.13;;;3.17;;
38879;SDS011;25887;30.194;-97.880;2023-06-22T06:05:54;7.63;;;3.05;;
38879;SDS011;25887;30.194;-97.880;2023-06-22T06:08:20;4.65;;;2.97;;
38879;SDS011;25887;30.194;-97.880;2023-06-22T06:10:46;6.25;;;2.47;;
38879;SDS011;25887;30.194;-97.880;2023-06-22T06:13:13;4.80;;;2.47;;
38879;SDS011;25887;30.194;-97.880;2023-06-22T06:15:39;4.00;;;2.95;;
38879;SDS011;25887;30.194;-97.880;2023-06-22T06:18:05;4.32;;;2.67;;
38879;SDS011;25887;30.194;-97.880;2023-06-22T06:20:32;4.50;;;2.72;;
38879;SDS011;25887;30.194;-97.880;2023-06-22T06:22:58;7.75;;;2.60;;
38879;SDS011;25887;30.194;-97.880;2023-06-22T06:25:24;3.38;;;2.33;;
38879;SDS011;25887;30.194;-97.880;2023-06-22T06:27:51;4.57;;;2.80;;
38879;SDS011;25887;30.194;-97.880;2023-06-22T06:30:19;5.32;;;2.65;;
38879;SDS011;25887;30.194;-97.880;2023-06-22T06:32:47;3.90;;;2.50;;
38879;SDS011;25887;30.194;-97.880;2023-06-22T06:35:14;6.55;;;3.05;;
38879;SDS011;25887;30.194;-97.880;2023-06-22T06:37:47;8.45;;;2.60;;
38879;SDS011;25887;30.194;-97.880;2023-06-22T06:40:15;5.80;;;3.08;;
38879;SDS011;25887;30.194;-97.880;2023-06-22T06:42:43;4.32;;;2.92;;
38879;SDS011;25887;30.194;-97.880;2023-06-22T06:45:11;5.00;;;3.10;;
38879;SDS011;25887;30.194;-97.880;2023-06-22T06:47:39;4.38;;;2.80;;
38879;SDS011;25887;30.194;-97.880;2023-06-22T06:50:05;5.97;;;2.90;;
38879;SDS011;25887;30.194;-97.880;2023-06-22T06:52:32;3.85;;;2.60;;
38879;SDS011;25887;30.194;-97.880;2023-06-22T06:54:59;6.07;;;2.92;;
38879;SDS011;25887;30.194;-97.880;2023-06-22T06:57:25;6.47;;;2.95;;
38879;SDS011;25887;30.194;-97.880;2023-06-22T06:59:55;6.20;;;3.58;;
38879;SDS011;25887;30.194;-97.880;2023-06-22T07:02:23;3.53;;;2.55;;
38879;SDS011;25887;30.194;-97.880;2023-06-22T07:04:49;4.38;;;2.67;;
38879;SDS011;25887;30.194;-97.880;2023-06-22T07:07:16;4.43;;;2.75;;
38879;SDS011;25887;30.194;-97.880;2023-06-22T07:09:42;10.68;;;3.03;;
38879;SDS011;25887;30.194;-97.880;2023-06-22T07:12:08;3.78;;;2.78;;
38879;SDS011;25887;30.194;-97.880;2023-06-22T07:14:35;7.50;;;3.08;;
38879;SDS011;25887;30.194;-97.880;2023-06-22T07:17:01;7.05;;;2.85;;
38879;SDS011;25887;30.194;-97.880;2023-06-22T07:19:27;6.03;;;3.15;;
38879;SDS011;25887;30.194;-97.880;2023-06-22T07:21:56;4.05;;;2.70;;
38879;SDS011;25887;30.194;-97.880;2023-06-22T07:24:23;4.28;;;2.90;;
38879;SDS011;25887;30.194;-97.880;2023-06-22T07:26:50;3.72;;;2.88;;
38879;SDS011;25887;30.194;-97.880;2023-06-22T07:29:17;5.95;;;2.78;;
38879;SDS011;25887;30.194;-97.880;2023-06-22T07:31:44;5.10;;;2.80;;
38879;SDS011;25887;30.194;-97.880;2023-06-22T07:34:11;9.52;;;2.92;;
38879;SDS011;25887;30.194;-97.880;2023-06-22T07:36:37;4.60;;;3.03;;
38879;SDS011;25887;30.194;-97.880;2023-06-22T07:39:03;7.50;;;2.92;;
38879;SDS011;25887;30.194;-97.880;2023-06-22T07:41:30;7.82;;;2.70;;
38879;SDS011;25887;30.194;-97.880;2023-06-22T07:43:57;4.85;;;2.60;;
38879;SDS011;25887;30.194;-97.880;2023-06-22T07:46:23;4.13;;;2.80;;
38879;SDS011;25887;30.194;-97.880;2023-06-22T07:48:50;4.47;;;2.55;;
38879;SDS011;25887;30.194;-97.880;2023-06-22T07:51:17;4.65;;;2.88;;
38879;SDS011;25887;30.194;-97.880;2023-06-22T07:53:43;7.45;;;2.80;;
38879;SDS011;25887;30.194;-97.880;2023-06-22T07:56:10;6.03;;;2.67;;
38879;SDS011;25887;30.194;-97.880;2023-06-22T07:58:36;6.00;;;3.03;;
38879;SDS011;25887;30.194;-97.880;2023-06-22T08:01:04;4.13;;;2.53;;
38879;SDS011;25887;30.194;-97.880;2023-06-22T08:03:32;8.07;;;3.40;;
38879;SDS011;25887;30.194;-97.880;2023-06-22T08:05:59;5.20;;;2.83;;
38879;SDS011;25887;30.194;-97.880;2023-06-22T08:08:25;5.50;;;2.85;;
38879;SDS011;25887;30.194;-97.880;2023-06-22T08:10:51;3.75;;;2.80;;
38879;SDS011;25887;30.194;-97.880;2023-06-22T08:13:17;6.10;;;2.90;;
38879;SDS011;25887;30.194;-97.880;2023-06-22T08:15:46;3.35;;;2.65;;
38879;SDS011;25887;30.194;-97.880;2023-06-22T08:18:12;5.88;;;2.92;;
38879;SDS011;25887;30.194;-97.880;2023-06-22T08:20:38;4.90;;;2.80;;
38879;SDS011;25887;30.194;-97.880;2023-06-22T08:23:04;4.97;;;2.88;;
38879;SDS011;25887;30.194;-97.880;2023-06-22T08:25:32;5.28;;;3.10;;
38879;SDS011;25887;30.194;-97.880;2023-06-22T08:27:59;4.05;;;2.33;;
38879;SDS011;25887;30.194;-97.880;2023-06-22T08:30:26;4.72;;;2.90;;
38879;SDS011;25887;30.194;-97.880;2023-06-22T08:32:53;6.35;;;2.78;;
38879;SDS011;25887;30.194;-97.880;2023-06-22T08:35:21;4.60;;;2.60;;
38879;SDS011;25887;30.194;-97.880;2023-06-22T08:37:50;4.68;;;2.70;;
38879;SDS011;25887;30.194;-97.880;2023-06-22T08:40:20;4.13;;;2.67;;
38879;SDS011;25887;30.194;-97.880;2023-06-22T08:42:47;5.07;;;2.83;;
38879;SDS011;25887;30.194;-97.880;2023-06-22T08:45:15;6.45;;;2.72;;
38879;SDS011;25887;30.194;-97.880;2023-06-22T08:47:41;5.00;;;3.03;;
38879;SDS011;25887;30.194;-97.880;2023-06-22T08:50:08;6.03;;;2.78;;
38879;SDS011;25887;30.194;-97.880;2023-06-22T08:52:48;5.63;;;2.70;;
38879;SDS011;25887;30.194;-97.880;2023-06-22T08:55:15;5.47;;;2.55;;
38879;SDS011;25887;30.194;-97.880;2023-06-22T08:57:41;4.55;;;2.72;;
38879;SDS011;25887;30.194;-97.880;2023-06-22T09:00:08;5.65;;;2.67;;
38879;SDS011;25887;30.194;-97.880;2023-06-22T09:02:45;6.80;;;3.13;;
38879;SDS011;25887;30.194;-97.880;2023-06-22T09:05:12;5.25;;;2.80;;
38879;SDS011;25887;30.194;-97.880;2023-06-22T09:07:39;7.72;;;3.42;;
38879;SDS011;25887;30.194;-97.880;2023-06-22T09:10:06;9.73;;;3.03;;
38879;SDS011;25887;30.194;-97.880;2023-06-22T09:12:33;5.72;;;3.28;;
38879;SDS011;25887;30.194;-97.880;2023-06-22T09:14:59;5.32;;;2.90;;
38879;SDS011;25887;30.194;-97.880;2023-06-22T09:17:41;6.28;;;3.28;;
38879;SDS011;25887;30.194;-97.880;2023-06-22T09:20:28;7.15;;;2.70;;
38879;SDS011;25887;30.194;-97.880;2023-06-22T09:22:55;4.03;;;2.67;;
38879;SDS011;25887;30.194;-97.880;2023-06-22T09:25:21;5.25;;;2.70;;
38879;SDS011;25887;30.194;-97.880;2023-06-22T09:27:47;5.00;;;3.10;;
38879;SDS011;25887;30.194;-97.880;2023-06-22T09:30:14;4.65;;;3.10;;
38879;SDS011;25887;30.194;-97.880;2023-06-22T09:32:40;4.55;;;2.53;;
38879;SDS011;25887;30.194;-97.880;2023-06-22T09:35:07;4.85;;;3.17;;
38879;SDS011;25887;30.194;-97.880;2023-06-22T09:37:35;6.60;;;2.88;;
38879;SDS011;25887;30.194;-97.880;2023-06-22T09:40:01;4.50;;;3.03;;
38879;SDS011;25887;30.194;-97.880;2023-06-22T09:42:33;4.05;;;2.78;;
38879;SDS011;25887;30.194;-97.880;2023-06-22T09:44:59;6.10;;;3.05;;
38879;SDS011;25887;30.194;-97.880;2023-06-22T09:47:27;4.47;;;2.83;;
38879;SDS011;25887;30.194;-97.880;2023-06-22T09:49:55;4.30;;;2.60;;
38879;SDS011;25887;30.194;-97.880;2023-06-22T09:52:21;4.28;;;2.67;;
38879;SDS011;25887;30.194;-97.880;2023-06-22T09:54:50;8.23;;;2.92;;
38879;SDS011;25887;30.194;-97.880;2023-06-22T09:57:16;6.13;;;3.17;;
38879;SDS011;25887;30.194;-97.880;2023-06-22T09:59:43;4.30;;;3.20;;
38879;SDS011;25887;30.194;-97.880;2023-06-22T10:02:09;6.43;;;3.28;;
38879;SDS011;25887;30.194;-97.880;2023-06-22T10:04:35;6.32;;;2.80;;
38879;SDS011;25887;30.194;-97.880;2023-06-22T10:07:03;5.55;;;3.15;;
38879;SDS011;25887;30.194;-97.880;2023-06-22T10:09:29;5.22;;;3.03;;
38879;SDS011;25887;30.194;-97.880;2023-06-22T10:15:01;7.05;;;3.08;;
38879;SDS011;25887;30.194;-97.880;2023-06-22T10:17:28;5.55;;;3.10;;
38879;SDS011;25887;30.194;-97.880;2023-06-22T10:19:54;8.40;;;3.17;;
38879;SDS011;25887;30.194;-97.880;2023-06-22T10:22:20;6.00;;;2.90;;
38879;SDS011;25887;30.194;-97.880;2023-06-22T10:24:47;4.45;;;3.03;;
38879;SDS011;25887;30.194;-97.880;2023-06-22T10:27:13;5.85;;;2.55;;
38879;SDS011;25887;30.194;-97.880;2023-06-22T10:29:39;4.45;;;2.75;;
38879;SDS011;25887;30.194;-97.880;2023-06-22T10:32:06;8.15;;;3.00;;
38879;SDS011;25887;30.194;-97.880;2023-06-22T10:34:33;5.72;;;3.13;;
38879;SDS011;25887;30.194;-97.880;2023-06-22T10:36:59;3.25;;;2.53;;
38879;SDS011;25887;30.194;-97.880;2023-06-22T10:39:25;7.65;;;3.05;;
38879;SDS011;25887;30.194;-97.880;2023-06-22T10:41:52;4.65;;;2.85;;
38879;SDS011;25887;30.194;-97.880;2023-06-22T10:44:18;8.35;;;2.83;;
38879;SDS011;25887;30.194;-97.880;2023-06-22T10:46:45;6.70;;;2.92;;
38879;SDS011;25887;30.194;-97.880;2023-06-22T10:49:12;4.88;;;2.85;;
38879;SDS011;25887;30.194;-97.880;2023-06-22T10:51:38;4.68;;;3.00;;
38879;SDS011;25887;30.194;-97.880;2023-06-22T10:54:04;4.18;;;2.83;;
38879;SDS011;25887;30.194;-97.880;2023-06-22T10:56:30;6.55;;;2.75;;
38879;SDS011;25887;30.194;-97.880;2023-06-22T10:59:11;9.27;;;3.05;;
38879;SDS011;25887;30.194;-97.880;2023-06-22T11:01:37;5.28;;;2.75;;
38879;SDS011;25887;30.194;-97.880;2023-06-22T11:04:03;6.60;;;3.03;;
38879;SDS011;25887;30.194;-97.880;2023-06-22T11:06:29;3.65;;;2.70;;
38879;SDS011;25887;30.194;-97.880;2023-06-22T11:08:56;5.28;;;2.70;;
38879;SDS011;25887;30.194;-97.880;2023-06-22T11:11:23;4.00;;;2.38;;
38879;SDS011;25887;30.194;-97.880;2023-06-22T11:13:49;5.10;;;2.85;;
38879;SDS011;25887;30.194;-97.880;2023-06-22T11:16:15;6.35;;;2.58;;
38879;SDS011;25887;30.194;-97.880;2023-06-22T11:18:41;4.03;;;2.20;;
38879;SDS011;25887;30.194;-97.880;2023-06-22T11:21:07;6.18;;;3.15;;
38879;SDS011;25887;30.194;-97.880;2023-06-22T11:23:33;5.38;;;2.38;;
38879;SDS011;25887;30.194;-97.880;2023-06-22T11:26:00;3.60;;;2.60;;
38879;SDS011;25887;30.194;-97.880;2023-06-22T11:28:26;3.65;;;2.33;;
38879;SDS011;25887;30.194;-97.880;2023-06-22T11:30:53;5.60;;;3.00;;
38879;SDS011;25887;30.194;-97.880;2023-06-22T11:33:19;6.35;;;3.42;;
38879;SDS011;25887;30.194;-97.880;2023-06-22T11:35:45;7.15;;;2.97;;
38879;SDS011;25887;30.194;-97.880;2023-06-22T11:38:12;5.72;;;3.28;;
38879;SDS011;25887;30.194;-97.880;2023-06-22T11:40:38;4.95;;;2.72;;
38879;SDS011;25887;30.194;-97.880;2023-06-22T11:43:04;4.10;;;2.47;;
38879;SDS011;25887;30.194;-97.880;2023-06-22T11:45:30;3.33;;;2.63;;
38879;SDS011;25887;30.194;-97.880;2023-06-22T11:47:57;4.50;;;2.70;;
38879;SDS011;25887;30.194;-97.880;2023-06-22T11:50:23;4.45;;;2.88;;
38879;SDS011;25887;30.194;-97.880;2023-06-22T11:52:56;9.70;;;2.85;;
38879;SDS011;25887;30.194;-97.880;2023-06-22T11:55:22;5.60;;;2.83;;
38879;SDS011;25887;30.194;-97.880;2023-06-22T11:57:55;4.03;;;2.67;;
38879;SDS011;25887;30.194;-97.880;2023-06-22T12:00:24;4.38;;;2.53;;
38879;SDS011;25887;30.194;-97.880;2023-06-22T12:02:51;3.40;;;2.40;;
38879;SDS011;25887;30.194;-97.880;2023-06-22T12:05:20;3.97;;;2.20;;
38879;SDS011;25887;30.194;-97.880;2023-06-22T12:07:47;4.18;;;2.55;;
38879;SDS011;25887;30.194;-97.880;2023-06-22T12:10:15;3.85;;;2.38;;
38879;SDS011;25887;30.194;-97.880;2023-06-22T12:12:42;4.80;;;2.55;;
38879;SDS011;25887;30.194;-97.880;2023-06-22T12:15:09;4.78;;;2.70;;
38879;SDS011;25887;30.194;-97.880;2023-06-22T12:17:36;3.88;;;2.25;;
38879;SDS011;25887;30.194;-97.880;2023-06-22T12:20:02;3.58;;;2.22;;
38879;SDS011;25887;30.194;-97.880;2023-06-22T12:22:32;4.90;;;2.25;;
38879;SDS011;25887;30.194;-97.880;2023-06-22T12:24:58;3.17;;;1.92;;
38879;SDS011;25887;30.194;-97.880;2023-06-22T12:27:24;3.05;;;2.03;;
38879;SDS011;25887;30.194;-97.880;2023-06-22T12:29:51;3.33;;;2.00;;
38879;SDS011;25887;30.194;-97.880;2023-06-22T12:32:17;4.30;;;1.90;;
38879;SDS011;25887;30.194;-97.880;2023-06-22T12:34:44;2.00;;;1.60;;
38879;SDS011;25887;30.194;-97.880;2023-06-22T12:37:10;2.28;;;1.55;;
38879;SDS011;25887;30.194;-97.880;2023-06-22T12:39:36;2.83;;;2.00;;
38879;SDS011;25887;30.194;-97.880;2023-06-22T12:42:02;5.20;;;2.33;;
38879;SDS011;25887;30.194;-97.880;2023-06-22T12:44:29;2.38;;;1.50;;
38879;SDS011;25887;30.194;-97.880;2023-06-22T12:46:55;2.50;;;2.00;;
38879;SDS011;25887;30.194;-97.880;2023-06-22T12:49:21;2.65;;;1.60;;
38879;SDS011;25887;30.194;-97.880;2023-06-22T12:51:47;3.00;;;1.80;;
38879;SDS011;25887;30.194;-97.880;2023-06-22T12:54:16;5.28;;;2.05;;
38879;SDS011;25887;30.194;-97.880;2023-06-22T12:56:43;3.78;;;2.47;;
38879;SDS011;25887;30.194;-97.880;2023-06-22T12:59:12;4.25;;;2.67;;
38879;SDS011;25887;30.194;-97.880;2023-06-22T13:04:30;3.97;;;2.10;;
38879;SDS011;25887;30.194;-97.880;2023-06-22T13:06:57;3.25;;;2.25;;
38879;SDS011;25887;30.194;-97.880;2023-06-22T13:09:23;5.90;;;2.88;;
38879;SDS011;25887;30.194;-97.880;2023-06-22T13:11:49;7.32;;;2.80;;
38879;SDS011;25887;30.194;-97.880;2023-06-22T13:14:16;6.22;;;2.80;;
38879;SDS011;25887;30.194;-97.880;2023-06-22T13:16:42;5.63;;;2.58;;
38879;SDS011;25887;30.194;-97.880;2023-06-22T13:19:08;4.90;;;2.75;;
38879;SDS011;25887;30.194;-97.880;2023-06-22T13:21:35;6.72;;;2.95;;
38879;SDS011;25887;30.194;-97.880;2023-06-22T13:24:01;5.90;;;3.13;;
38879;SDS011;25887;30.194;-97.880;2023-06-22T13:26:27;4.50;;;2.97;;
38879;SDS011;25887;30.194;-97.880;2023-06-22T13:28:56;9.13;;;2.95;;
38879;SDS011;25887;30.194;-97.880;2023-06-22T13:31:22;10.68;;;2.72;;
38879;SDS011;25887;30.194;-97.880;2023-06-22T13:33:48;6.80;;;3.00;;
38879;SDS011;25887;30.194;-97.880;2023-06-22T13:36:17;5.93;;;2.28;;
38879;SDS011;25887;30.194;-97.880;2023-06-22T13:38:44;3.63;;;2.28;;
38879;SDS011;25887;30.194;-97.880;2023-06-22T13:41:11;6.03;;;2.65;;
38879;SDS011;25887;30.194;-97.880;2023-06-22T13:43:37;4.32;;;2.85;;
38879;SDS011;25887;30.194;-97.880;2023-06-22T13:46:03;4.47;;;2.33;;
38879;SDS011;25887;30.194;-97.880;2023-06-22T13:48:29;3.72;;;2.85;;
38879;SDS011;25887;30.194;-97.880;2023-06-22T13:50:55;5.68;;;3.17;;
38879;SDS011;25887;30.194;-97.880;2023-06-22T13:53:32;5.15;;;2.67;;
38879;SDS011;25887;30.194;-97.880;2023-06-22T13:55:59;4.20;;;3.13;;
38879;SDS011;25887;30.194;-97.880;2023-06-22T13:58:25;6.15;;;2.80;;
38879;SDS011;25887;30.194;-97.880;2023-06-22T14:00:51;10.32;;;3.47;;
38879;SDS011;25887;30.194;-97.880;2023-06-22T14:03:17;7.28;;;3.08;;
38879;SDS011;25887;30.194;-97.880;2023-06-22T14:05:43;5.70;;;3.15;;
38879;SDS011;25887;30.194;-97.880;2023-06-22T14:08:10;6.38;;;3.45;;
38879;SDS011;25887;30.194;-97.880;2023-06-22T14:10:54;9.88;;;2.95;;
38879;SDS011;25887;30.194;-97.880;2023-06-22T14:13:21;8.38;;;3.40;;
38879;SDS011;25887;30.194;-97.880;2023-06-22T14:15:47;7.38;;;3.10;;
38879;SDS011;25887;30.194;-97.880;2023-06-22T14:18:13;8.32;;;3.40;;
38879;SDS011;25887;30.194;-97.880;2023-06-22T14:20:40;5.00;;;2.55;;
38879;SDS011;25887;30.194;-97.880;2023-06-22T14:23:06;6.00;;;3.38;;
38879;SDS011;25887;30.194;-97.880;2023-06-22T14:25:32;6.15;;;3.40;;
38879;SDS011;25887;30.194;-97.880;2023-06-22T14:28:08;5.00;;;3.58;;
38879;SDS011;25887;30.194;-97.880;2023-06-22T14:30:34;4.55;;;3.05;;
38879;SDS011;25887;30.194;-97.880;2023-06-22T14:33:01;6.45;;;3.00;;
38879;SDS011;25887;30.194;-97.880;2023-06-22T14:35:27;6.85;;;3.47;;